createdAt,value
2023-05-17T00:01:23.941Z,92.00
2023-05-17T00:03:54.169Z,92.46
2023-05-17T00:06:22.646Z,92.99
2023-05-17T00:08:50.967Z,93.70
2023-05-17T00:11:19.341Z,92.92
2023-05-17T00:13:49.058Z,93.42
2023-05-17T00:16:17.627Z,93.40
2023-05-17T00:18:46.276Z,93.53
2023-05-17T00:21:16.539Z,94.12
2023-05-17T00:23:44.953Z,94.79
2023-05-17T00:26:13.824Z,95.25
2023-05-17T00:28:42.148Z,95.73
2023-05-17T00:31:11.886Z,95.72
2023-05-17T00:33:40.363Z,95.67
2023-05-17T00:36:08.774Z,96.09
2023-05-17T00:38:37.175Z,96.29
2023-05-17T00:41:05.477Z,96.37
2023-05-17T00:43:33.883Z,96.10
2023-05-17T00:46:02.317Z,96.47
2023-05-17T00:48:32.191Z,96.29
2023-05-17T00:51:01.096Z,96.64
2023-05-17T00:53:29.608Z,97.15
2023-05-17T00:55:58.236Z,97.31
2023-05-17T00:58:26.662Z,97.04
2023-05-17T01:00:55.123Z,97.66
2023-05-17T01:03:23.672Z,98.11
2023-05-17T01:05:53.306Z,97.38
2023-05-17T01:08:21.688Z,97.38
2023-05-17T01:10:54.131Z,98.00
2023-05-17T01:13:25.470Z,97.93
2023-05-17T01:15:58.350Z,98.08
2023-05-17T01:18:30.789Z,98.44
2023-05-17T01:21:02.543Z,98.05
2023-05-17T01:23:42.995Z,98.54
2023-05-17T01:26:15.097Z,98.31
2023-05-17T01:28:46.011Z,98.27
2023-05-17T01:31:14.893Z,98.50
2023-05-17T01:33:43.494Z,98.97
2023-05-17T01:36:11.970Z,98.44
2023-05-17T01:38:40.216Z,99.01
2023-05-17T01:41:12.145Z,99.21
2023-05-17T01:43:43.423Z,99.54
2023-05-17T01:46:17.254Z,99.58
2023-05-17T01:48:50.528Z,99.68
2023-05-17T01:51:21.191Z,100.00
2023-05-17T01:53:51.886Z,99.94
2023-05-17T01:56:22.047Z,100.00
2023-05-17T01:58:52.460Z,100.00
2023-05-17T02:01:22.510Z,100.00
2023-05-17T02:03:51.171Z,100.00
2023-05-17T02:06:33.821Z,100.00
2023-05-17T02:09:03.079Z,100.00
2023-05-17T02:11:33.435Z,100.00
2023-05-17T02:14:01.678Z,100.00
2023-05-17T02:16:31.496Z,100.00
2023-05-17T02:19:00.091Z,100.00
2023-05-17T02:21:28.540Z,100.00
2023-05-17T02:23:57.712Z,100.00
2023-05-17T02:26:26.225Z,100.00
2023-05-17T02:28:57.271Z,100.00
2023-05-17T02:31:26.879Z,100.00
2023-05-17T02:33:56.784Z,100.00
2023-05-17T02:36:25.438Z,100.00
2023-05-17T02:38:53.840Z,100.00
2023-05-17T02:41:22.619Z,100.00
2023-05-17T02:43:51.152Z,100.00
2023-05-17T02:46:28.436Z,100.00
2023-05-17T02:48:58.187Z,100.00
2023-05-17T02:51:26.513Z,100.00
2023-05-17T02:53:55.000Z,100.00
2023-05-17T02:56:23.306Z,100.00
2023-05-17T02:58:51.655Z,100.00
2023-05-17T03:01:20.037Z,100.00
2023-05-17T03:03:49.008Z,100.00
2023-05-17T03:06:18.921Z,100.00
2023-05-17T03:08:47.248Z,100.00
2023-05-17T03:11:15.567Z,100.00
2023-05-17T03:13:46.364Z,100.00
2023-05-17T03:16:14.809Z,100.00
2023-05-17T03:18:43.285Z,100.00
2023-05-17T03:21:11.834Z,99.82
2023-05-17T03:23:41.479Z,99.79
2023-05-17T03:26:09.753Z,99.00
2023-05-17T03:28:38.084Z,98.04
2023-05-17T03:31:06.573Z,97.95
2023-05-17T03:33:35.013Z,97.77
2023-05-17T03:36:03.417Z,97.12
2023-05-17T03:38:32.068Z,96.89
2023-05-17T03:41:01.801Z,97.24
2023-05-17T03:43:30.151Z,97.25
2023-05-17T03:45:58.452Z,97.82
2023-05-17T03:48:36.149Z,97.61
2023-05-17T03:51:05.034Z,98.82
2023-05-17T03:53:33.663Z,99.78
2023-05-17T03:56:03.371Z,99.56
2023-05-17T03:58:31.668Z,99.25
2023-05-17T04:00:59.930Z,99.96
2023-05-17T04:03:28.397Z,100.00
2023-05-17T04:06:02.140Z,100.00
2023-05-17T04:08:30.557Z,99.67
2023-05-17T04:10:58.870Z,98.89
2023-05-17T04:13:28.628Z,99.21
2023-05-17T04:15:56.861Z,99.83
2023-05-17T04:18:25.231Z,100.00
2023-05-17T04:20:53.782Z,100.00
2023-05-17T04:23:22.108Z,99.98
2023-05-17T04:25:50.908Z,99.45
2023-05-17T04:28:19.724Z,98.40
2023-05-17T04:30:49.438Z,98.01
2023-05-17T04:33:17.971Z,96.87
2023-05-17T04:35:46.957Z,96.47
2023-05-17T04:38:15.282Z,95.70
2023-05-17T04:40:43.555Z,95.14
2023-05-17T04:43:12.188Z,94.73
2023-05-17T04:45:41.049Z,96.36
2023-05-17T04:48:10.884Z,96.64
2023-05-17T04:50:39.242Z,97.84
2023-05-17T04:53:07.595Z,98.20
2023-05-17T04:55:35.972Z,98.69
2023-05-17T04:58:04.358Z,98.82
2023-05-17T05:00:32.702Z,99.23
2023-05-17T05:03:01.044Z,98.78
2023-05-17T05:05:31.343Z,98.84
2023-05-17T05:07:59.717Z,98.45
2023-05-17T05:10:28.765Z,98.14
2023-05-17T05:12:58.066Z,97.63
2023-05-17T05:15:26.486Z,97.29
2023-05-17T05:17:55.025Z,96.46
2023-05-17T05:20:24.650Z,96.47
2023-05-17T05:22:58.396Z,95.25
2023-05-17T05:25:28.435Z,94.61
2023-05-17T05:27:56.961Z,94.87
2023-05-17T05:30:27.303Z,93.96
2023-05-17T05:32:58.624Z,93.99
2023-05-17T05:35:30.373Z,93.70
2023-05-17T05:38:00.510Z,92.63
2023-05-17T05:40:28.973Z,89.83
2023-05-17T05:42:57.433Z,89.40
2023-05-17T05:45:25.850Z,89.63
2023-05-17T05:47:54.341Z,88.51
2023-05-17T05:50:22.840Z,88.68
2023-05-17T05:52:51.385Z,88.62
2023-05-17T05:55:21.132Z,87.74
2023-05-17T05:57:49.479Z,84.22
2023-05-17T06:00:18.659Z,83.92
2023-05-17T06:02:47.111Z,83.13
2023-05-17T06:05:15.500Z,81.93
2023-05-17T06:07:46.584Z,80.83
2023-05-17T06:10:14.962Z,80.38
2023-05-17T06:12:44.763Z,78.46
2023-05-17T06:15:13.310Z,78.58
2023-05-17T06:17:41.789Z,78.51
2023-05-17T06:20:10.771Z,77.75
2023-05-17T06:22:41.807Z,77.18
2023-05-17T06:25:11.325Z,77.32
2023-05-17T06:27:41.204Z,75.54
2023-05-17T06:30:11.741Z,76.04
2023-05-17T06:32:40.193Z,75.31
2023-05-17T06:35:09.153Z,74.37
2023-05-17T06:37:37.721Z,74.04
2023-05-17T06:40:16.469Z,72.68
2023-05-17T06:42:45.700Z,71.58
2023-05-17T06:45:16.300Z,69.91
2023-05-17T06:47:44.760Z,69.53
2023-05-17T06:50:13.263Z,67.85
2023-05-17T06:52:41.594Z,65.59
2023-05-17T06:55:10.523Z,65.28
2023-05-17T06:57:38.976Z,63.30
2023-05-17T07:00:11.001Z,61.51
2023-05-17T07:02:40.985Z,60.33
2023-05-17T07:05:09.679Z,60.90
2023-05-17T07:07:38.201Z,58.70
2023-05-17T07:10:07.401Z,59.10
2023-05-17T07:12:35.901Z,57.70
2023-05-17T07:15:07.376Z,58.25
2023-05-17T07:17:36.159Z,56.41
2023-05-17T07:20:06.680Z,56.44
2023-05-17T07:22:39.099Z,54.79
2023-05-17T07:25:08.323Z,53.05
2023-05-17T07:27:38.322Z,52.52
2023-05-17T07:30:07.584Z,49.24
2023-05-17T07:32:35.942Z,49.51
2023-05-17T07:35:04.511Z,49.69
2023-05-17T07:37:34.276Z,47.85
2023-05-17T07:40:02.641Z,48.41
2023-05-17T07:42:30.934Z,49.08
2023-05-17T07:44:59.300Z,47.90
2023-05-17T07:47:27.823Z,49.58
2023-05-17T07:49:56.221Z,49.26
2023-05-17T07:52:24.641Z,49.02
2023-05-17T07:54:54.442Z,48.66
2023-05-17T07:57:22.912Z,49.35
2023-05-17T07:59:52.693Z,48.67
2023-05-17T08:02:21.158Z,49.13
2023-05-17T08:04:51.997Z,48.79
2023-05-17T08:07:20.519Z,48.97
2023-05-17T08:09:48.848Z,44.96
2023-05-17T08:12:18.958Z,42.99
2023-05-17T08:14:47.286Z,42.41
2023-05-17T08:17:15.741Z,41.70
2023-05-17T08:19:47.106Z,37.56
2023-05-17T08:22:16.319Z,31.39
2023-05-17T08:24:45.865Z,29.58
2023-05-17T08:27:14.115Z,29.88
2023-05-17T08:29:43.804Z,30.66
2023-05-17T08:32:12.110Z,31.67
2023-05-17T08:34:40.492Z,33.26
2023-05-17T08:37:10.068Z,35.45
2023-05-17T08:40:06.363Z,38.16
2023-05-17T08:42:34.771Z,36.70
2023-05-17T08:45:05.873Z,37.94
2023-05-17T08:47:37.704Z,39.47
2023-05-17T08:50:07.684Z,40.81
2023-05-17T08:52:36.993Z,40.97
2023-05-17T08:55:06.185Z,39.04
2023-05-17T08:57:36.238Z,34.35
2023-05-17T09:00:12.431Z,34.20
2023-05-17T09:02:42.326Z,34.10
2023-05-17T09:05:11.255Z,35.40
2023-05-17T09:07:39.760Z,36.79
2023-05-17T09:10:08.780Z,35.10
2023-05-17T09:12:37.156Z,32.60
2023-05-17T09:15:17.970Z,29.63
2023-05-17T09:17:52.098Z,28.63
2023-05-17T09:20:25.229Z,30.48
2023-05-17T09:22:53.659Z,31.63
2023-05-17T09:25:22.325Z,32.22
2023-05-17T09:27:53.133Z,32.47
2023-05-17T09:30:27.740Z,30.08
2023-05-17T09:32:57.800Z,25.14
2023-05-17T09:35:30.167Z,24.46
2023-05-17T09:38:05.209Z,23.44
2023-05-17T09:40:38.958Z,19.21
2023-05-17T09:43:07.427Z,19.15
2023-05-17T09:45:37.176Z,18.45
2023-05-17T09:48:15.610Z,17.58
2023-05-17T09:50:44.790Z,19.39
2023-05-17T09:53:42.754Z,23.17
2023-05-17T09:56:12.044Z,23.10
2023-05-17T09:58:43.831Z,21.95
2023-05-17T10:01:13.635Z,22.07
2023-05-17T10:03:42.188Z,24.48
2023-05-17T10:06:16.589Z,25.38
2023-05-17T10:08:57.572Z,26.70
2023-05-17T10:11:27.984Z,24.57
2023-05-17T10:13:59.463Z,25.65
2023-05-17T10:16:30.494Z,26.18
2023-05-17T10:18:59.540Z,26.56
2023-05-17T10:21:28.737Z,27.49
2023-05-17T10:23:57.722Z,29.14
2023-05-17T10:26:26.652Z,29.22
2023-05-17T10:29:00.626Z,25.73
2023-05-17T10:31:31.465Z,27.25
2023-05-17T10:34:01.623Z,28.75
2023-05-17T10:36:31.127Z,25.50
2023-05-17T10:39:00.577Z,22.49
2023-05-17T10:41:31.717Z,20.92
2023-05-17T10:44:00.845Z,19.52
2023-05-17T10:46:31.665Z,17.73
2023-05-17T10:49:01.990Z,18.15
2023-05-17T10:51:32.317Z,19.37
2023-05-17T10:54:08.710Z,22.31
2023-05-17T10:56:40.292Z,21.60
2023-05-17T10:59:21.704Z,21.74
2023-05-17T11:02:06.512Z,22.28
2023-05-17T11:04:36.353Z,19.74
2023-05-17T11:07:25.401Z,16.90
2023-05-17T11:09:55.746Z,17.08
2023-05-17T11:12:33.627Z,17.19
2023-05-17T11:15:08.311Z,17.47
2023-05-17T11:17:49.874Z,18.57
2023-05-17T11:20:32.277Z,20.08
2023-05-17T11:23:02.290Z,19.21
2023-05-17T11:25:31.842Z,19.33
2023-05-17T11:28:00.652Z,18.13
2023-05-17T11:30:32.085Z,18.62
2023-05-17T11:33:02.905Z,20.19
2023-05-17T11:35:33.763Z,20.67
2023-05-17T11:38:15.463Z,20.81
2023-05-17T11:40:44.197Z,21.29
2023-05-17T11:43:16.533Z,23.47
2023-05-17T11:45:46.567Z,23.99
2023-05-17T11:48:17.101Z,23.52
2023-05-17T11:50:46.606Z,21.84
2023-05-17T11:53:15.251Z,18.56
2023-05-17T11:55:44.450Z,17.75
2023-05-17T11:58:13.999Z,16.57
2023-05-17T12:00:42.955Z,15.85
2023-05-17T12:03:20.476Z,16.35
2023-05-17T12:05:49.753Z,18.65
2023-05-17T12:08:18.982Z,22.26
2023-05-17T12:10:49.316Z,24.96
2023-05-17T12:13:17.748Z,22.22
2023-05-17T12:15:47.057Z,20.62
2023-05-17T12:18:17.030Z,19.58
2023-05-17T12:20:57.154Z,22.51
2023-05-17T12:23:32.785Z,23.72
2023-05-17T12:26:05.030Z,22.89
2023-05-17T12:28:33.961Z,21.55
2023-05-17T12:31:03.897Z,17.47
2023-05-17T12:33:50.405Z,15.90
2023-05-17T12:36:35.143Z,18.52
2023-05-17T12:39:34.591Z,19.16
2023-05-17T12:42:03.275Z,21.18
2023-05-17T12:44:31.673Z,20.26
2023-05-17T12:47:03.099Z,17.46
2023-05-17T12:49:31.808Z,19.56
2023-05-17T12:52:04.246Z,19.13
2023-05-17T12:54:32.716Z,21.64
2023-05-17T12:57:12.495Z,20.16
2023-05-17T12:59:47.740Z,20.08
2023-05-17T13:02:16.775Z,23.12
2023-05-17T13:04:45.191Z,25.46
2023-05-17T13:07:21.772Z,27.83
2023-05-17T13:09:53.303Z,24.56
2023-05-17T13:12:22.544Z,22.57
2023-05-17T13:14:53.112Z,22.02
2023-05-17T13:17:27.505Z,19.17
2023-05-17T13:19:58.002Z,21.79
2023-05-17T13:22:28.073Z,22.55
2023-05-17T13:24:56.640Z,22.29
2023-05-17T13:27:24.965Z,22.75
2023-05-17T13:29:53.296Z,21.45
2023-05-17T13:32:21.835Z,19.43
2023-05-17T13:34:50.318Z,18.23
2023-05-17T13:37:18.636Z,17.22
2023-05-17T13:39:48.319Z,19.03
2023-05-17T13:42:17.565Z,21.32
2023-05-17T13:44:46.159Z,24.43
2023-05-17T13:47:14.670Z,25.46
2023-05-17T13:49:47.616Z,23.14
2023-05-17T13:52:18.480Z,21.90
2023-05-17T13:54:48.246Z,20.04
2023-05-17T13:57:16.849Z,18.17
2023-05-17T13:59:45.942Z,19.33
2023-05-17T14:02:18.168Z,19.33
2023-05-17T14:05:00.882Z,18.52
2023-05-17T14:07:30.141Z,18.64
2023-05-17T14:10:01.003Z,20.28
2023-05-17T14:12:29.566Z,20.73
2023-05-17T14:14:57.950Z,20.11
2023-05-17T14:17:26.319Z,21.98
2023-05-17T14:19:54.754Z,23.36
2023-05-17T14:22:23.106Z,23.65
2023-05-17T14:24:51.646Z,22.83
2023-05-17T14:27:32.217Z,22.16
2023-05-17T14:30:01.534Z,21.49
2023-05-17T14:32:30.289Z,21.65
2023-05-17T14:34:58.761Z,23.81
2023-05-17T14:37:27.564Z,25.23
2023-05-17T14:40:05.945Z,26.41
2023-05-17T14:42:36.689Z,27.06
2023-05-17T14:45:05.311Z,26.05
2023-05-17T14:47:36.425Z,26.18
2023-05-17T14:50:05.956Z,27.73
2023-05-17T14:52:34.749Z,27.24
2023-05-17T14:55:04.091Z,27.84
2023-05-17T14:57:32.647Z,28.05
2023-05-17T15:00:03.038Z,27.62
2023-05-17T15:02:31.686Z,29.15
2023-05-17T15:05:03.478Z,29.89
2023-05-17T15:07:33.256Z,29.12
2023-05-17T15:10:01.800Z,29.85
2023-05-17T15:12:30.319Z,29.94
2023-05-17T15:14:58.621Z,30.27
2023-05-17T15:17:28.660Z,30.04
2023-05-17T15:19:57.592Z,29.79
2023-05-17T15:22:26.330Z,28.53
2023-05-17T15:24:57.920Z,29.52
2023-05-17T15:27:26.550Z,30.16
2023-05-17T15:29:55.270Z,29.85
2023-05-17T15:32:23.802Z,30.98
2023-05-17T15:34:53.597Z,30.55
2023-05-17T15:37:22.038Z,29.26
2023-05-17T15:39:50.535Z,30.34
2023-05-17T15:42:19.353Z,31.49
2023-05-17T15:44:47.757Z,31.58
2023-05-17T15:47:19.241Z,32.68
2023-05-17T15:49:48.055Z,31.43
2023-05-17T15:52:18.017Z,30.35
2023-05-17T15:54:50.132Z,31.28
2023-05-17T15:57:18.911Z,32.03
2023-05-17T15:59:49.197Z,33.82
2023-05-17T16:02:19.992Z,34.35
2023-05-17T16:04:48.572Z,33.31
2023-05-17T16:07:18.377Z,33.96
2023-05-17T16:09:46.728Z,34.34
2023-05-17T16:12:15.009Z,33.38
2023-05-17T16:14:44.900Z,32.77
2023-05-17T16:17:13.313Z,32.63
2023-05-17T16:19:42.586Z,33.46
2023-05-17T16:22:11.112Z,33.40
2023-05-17T16:24:41.958Z,33.27
2023-05-17T16:27:10.376Z,34.44
2023-05-17T16:29:53.523Z,34.11
2023-05-17T16:32:21.942Z,34.65
2023-05-17T16:34:50.254Z,34.30
2023-05-17T16:37:18.634Z,34.83
2023-05-17T16:39:48.329Z,34.82
2023-05-17T16:42:16.718Z,35.01
2023-05-17T16:44:45.336Z,35.79
2023-05-17T16:47:14.113Z,36.34
2023-05-17T16:49:43.131Z,36.93
2023-05-17T16:52:11.484Z,36.16
2023-05-17T16:54:41.326Z,35.88
2023-05-17T16:57:11.448Z,35.64
2023-05-17T16:59:39.821Z,35.53
2023-05-17T17:02:08.255Z,35.06
2023-05-17T17:04:36.703Z,35.27
2023-05-17T17:07:07.961Z,35.22
2023-05-17T17:09:36.354Z,35.78
2023-05-17T17:12:20.205Z,35.66
2023-05-17T17:14:53.408Z,36.72
2023-05-17T17:17:22.097Z,36.64
2023-05-17T17:19:50.616Z,37.22
2023-05-17T17:22:18.873Z,37.78
2023-05-17T17:24:47.152Z,37.84
2023-05-17T17:27:15.636Z,37.86
2023-05-17T17:29:43.982Z,38.35
2023-05-17T17:32:13.718Z,39.24
2023-05-17T17:34:42.079Z,39.13
2023-05-17T17:37:10.431Z,39.24
2023-05-17T17:39:39.269Z,39.41
2023-05-17T17:42:09.987Z,40.30
2023-05-17T17:44:38.424Z,40.47
2023-05-17T17:47:08.755Z,40.55
2023-05-17T17:49:41.852Z,40.88
2023-05-17T17:52:10.348Z,41.10
2023-05-17T17:54:39.930Z,41.60
2023-05-17T17:57:08.649Z,42.10
2023-05-17T17:59:40.800Z,42.07
2023-05-17T18:02:09.583Z,41.71
2023-05-17T18:04:41.852Z,42.07
2023-05-17T18:07:17.367Z,42.78
2023-05-17T18:09:55.081Z,43.04
2023-05-17T18:12:32.623Z,43.58
2023-05-17T18:15:02.023Z,44.14
2023-05-17T18:17:30.462Z,43.88
2023-05-17T18:20:00.271Z,43.97
2023-05-17T18:22:38.222Z,44.53
2023-05-17T18:25:07.243Z,44.93
2023-05-17T18:27:36.740Z,45.25
2023-05-17T18:30:05.545Z,45.46
2023-05-17T18:32:34.186Z,45.25
2023-05-17T18:35:04.311Z,46.27
2023-05-17T18:37:33.032Z,45.19
2023-05-17T18:40:02.296Z,45.51
2023-05-17T18:42:30.875Z,45.28
2023-05-17T18:44:59.856Z,46.74
2023-05-17T18:47:28.728Z,46.27
2023-05-17T18:49:57.482Z,46.61
2023-05-17T18:52:27.335Z,47.10
2023-05-17T18:54:55.699Z,48.06
2023-05-17T18:57:24.207Z,48.82
2023-05-17T18:59:52.707Z,49.30
2023-05-17T19:02:21.237Z,49.34
2023-05-17T19:04:49.704Z,49.45
2023-05-17T19:07:18.267Z,50.19
2023-05-17T19:09:48.076Z,51.02
2023-05-17T19:12:16.464Z,51.56
2023-05-17T19:14:45.009Z,52.21
2023-05-17T19:17:13.446Z,52.12
2023-05-17T19:19:49.813Z,52.72
2023-05-17T19:22:21.644Z,52.83
2023-05-17T19:24:54.235Z,53.99
2023-05-17T19:27:22.680Z,53.75
2023-05-17T19:29:51.770Z,55.10
2023-05-17T19:32:22.694Z,55.11
2023-05-17T19:34:51.532Z,55.81
2023-05-17T19:37:24.652Z,55.85
2023-05-17T19:39:54.604Z,57.22
2023-05-17T19:42:25.699Z,57.06
2023-05-17T19:44:54.312Z,58.04
2023-05-17T19:47:22.773Z,57.92
2023-05-17T19:49:52.137Z,58.51
2023-05-17T19:52:21.385Z,58.53
2023-05-17T19:54:49.992Z,58.86
2023-05-17T19:57:19.847Z,58.42
2023-05-17T20:00:00.516Z,58.13
2023-05-17T20:02:29.779Z,58.65
2023-05-17T20:05:02.055Z,59.11
2023-05-17T20:07:30.784Z,58.33
2023-05-17T20:09:59.216Z,57.75
2023-05-17T20:12:29.493Z,57.50
2023-05-17T20:14:58.166Z,58.96
2023-05-17T20:17:26.466Z,58.98
2023-05-17T20:19:55.146Z,59.22
2023-05-17T20:22:23.607Z,59.70
2023-05-17T20:24:51.927Z,59.78
2023-05-17T20:27:20.521Z,60.06
2023-05-17T20:29:53.325Z,61.14
2023-05-17T20:32:22.046Z,61.16
2023-05-17T20:34:50.660Z,60.62
2023-05-17T20:37:20.487Z,60.77
2023-05-17T20:39:49.192Z,60.76
2023-05-17T20:42:20.631Z,61.78
2023-05-17T20:44:49.519Z,61.34
2023-05-17T20:47:23.046Z,61.41
2023-05-17T20:49:51.611Z,61.46
2023-05-17T20:52:38.068Z,61.42
2023-05-17T20:55:09.417Z,62.13
2023-05-17T20:57:38.141Z,61.52
2023-05-17T21:00:09.085Z,62.05
2023-05-17T21:02:39.764Z,62.93
2023-05-17T21:05:11.037Z,62.74
2023-05-17T21:07:40.598Z,63.77
2023-05-17T21:10:09.809Z,63.28
2023-05-17T21:12:38.430Z,63.80
2023-05-17T21:15:15.814Z,63.52
2023-05-17T21:17:47.158Z,63.73
2023-05-17T21:20:15.455Z,64.23
2023-05-17T21:22:44.320Z,63.92
2023-05-17T21:25:12.883Z,63.50
2023-05-17T21:27:41.150Z,64.27
2023-05-17T21:30:10.024Z,64.52
2023-05-17T21:32:38.375Z,63.96
2023-05-17T21:35:08.702Z,63.26
2023-05-17T21:37:39.856Z,63.94
2023-05-17T21:40:09.181Z,63.99
2023-05-17T21:42:37.628Z,64.29
2023-05-17T21:45:06.518Z,64.37
2023-05-17T21:47:36.014Z,64.43
2023-05-17T21:50:09.372Z,65.10
2023-05-17T21:52:39.774Z,64.96
2023-05-17T21:55:08.996Z,65.24
2023-05-17T21:57:37.459Z,64.60
2023-05-17T22:00:07.719Z,65.03
2023-05-17T22:02:38.951Z,65.17
2023-05-17T22:05:09.540Z,65.33
2023-05-17T22:08:01.624Z,65.94
2023-05-17T22:10:30.479Z,65.29
2023-05-17T22:13:02.053Z,65.26
2023-05-17T22:15:30.882Z,65.93
2023-05-17T22:17:59.415Z,66.35
2023-05-17T22:20:29.845Z,66.42
2023-05-17T22:22:58.552Z,66.86
2023-05-17T22:25:26.997Z,66.33
2023-05-17T22:27:55.457Z,67.80
2023-05-17T22:30:23.788Z,67.40
2023-05-17T22:32:54.768Z,68.38
2023-05-17T22:35:23.803Z,68.25
2023-05-17T22:37:53.730Z,68.33
2023-05-17T22:40:22.210Z,67.89
2023-05-17T22:42:51.808Z,68.23
2023-05-17T22:45:20.233Z,68.33
2023-05-17T22:48:05.669Z,67.67
2023-05-17T22:50:34.632Z,69.32
2023-05-17T22:53:06.896Z,69.13
2023-05-17T22:55:36.176Z,70.06
2023-05-17T22:58:04.772Z,69.86
2023-05-17T23:00:33.722Z,70.25
2023-05-17T23:03:02.360Z,69.39
2023-05-17T23:05:31.041Z,69.40
2023-05-17T23:08:01.137Z,69.44
2023-05-17T23:10:31.340Z,70.37
2023-05-17T23:12:59.905Z,70.53
2023-05-17T23:15:28.892Z,70.10
2023-05-17T23:17:59.560Z,70.75
2023-05-17T23:20:28.347Z,71.08
2023-05-17T23:22:59.461Z,71.76
2023-05-17T23:25:29.006Z,71.73
2023-05-17T23:27:59.318Z,72.35
2023-05-17T23:30:29.663Z,72.05
2023-05-17T23:32:58.060Z,71.77
2023-05-17T23:35:27.764Z,71.69
2023-05-17T23:37:56.853Z,72.76
2023-05-17T23:40:25.260Z,72.29
2023-05-17T23:42:53.785Z,72.62
2023-05-17T23:45:24.536Z,72.97
2023-05-17T23:47:54.945Z,73.57
2023-05-17T23:50:23.330Z,73.23
2023-05-17T23:52:51.658Z,72.97
2023-05-17T23:55:21.411Z,73.36
2023-05-17T23:57:50.844Z,74.06
